createdAt,value
2022-12-13T00:00:46.147Z,55.03
2022-12-13T00:03:13.581Z,53.21
2022-12-13T00:05:43.000Z,52.49
2022-12-13T00:08:10.512Z,50.69
2022-12-13T00:10:37.945Z,52.09
2022-12-13T00:13:05.211Z,50.80
2022-12-13T00:15:32.368Z,51.00
2022-12-13T00:17:59.814Z,55.67
2022-12-13T00:20:26.980Z,52.10
2022-12-13T00:22:54.176Z,50.80
2022-12-13T00:25:21.741Z,51.09
2022-12-13T00:27:48.900Z,50.57
2022-12-13T00:30:16.084Z,50.32
2022-12-13T00:32:43.562Z,50.38
2022-12-13T00:35:10.729Z,51.35
2022-12-13T00:37:37.905Z,50.37
2022-12-13T00:40:05.497Z,50.87
2022-12-13T00:42:32.749Z,49.42
2022-12-13T00:44:59.927Z,50.03
2022-12-13T00:47:27.500Z,50.09
2022-12-13T00:49:54.770Z,50.76
2022-12-13T00:52:21.917Z,49.64
2022-12-13T00:54:49.448Z,50.97
2022-12-13T00:57:16.600Z,49.20
2022-12-13T00:59:43.781Z,49.72
2022-12-13T01:02:11.249Z,50.70
2022-12-13T01:04:38.426Z,50.36
2022-12-13T01:07:05.564Z,50.02
2022-12-13T01:09:33.813Z,50.50
2022-12-13T01:12:05.602Z,51.35
2022-12-13T01:14:36.326Z,50.47
2022-12-13T01:17:04.855Z,49.89
2022-12-13T01:19:32.803Z,49.08
2022-12-13T01:22:01.916Z,48.43
2022-12-13T01:24:29.823Z,48.48
2022-12-13T01:26:57.393Z,49.25
2022-12-13T01:29:26.007Z,49.42
2022-12-13T01:31:53.603Z,48.63
2022-12-13T01:34:21.864Z,48.97
2022-12-13T01:36:58.067Z,48.76
2022-12-13T01:39:26.536Z,49.13
2022-12-13T01:41:59.836Z,49.14
2022-12-13T01:44:46.210Z,49.26
2022-12-13T01:47:13.703Z,51.65
2022-12-13T01:49:41.313Z,49.81
2022-12-13T01:52:08.965Z,49.85
2022-12-13T01:54:37.573Z,50.69
2022-12-13T01:57:05.552Z,51.49
2022-12-13T01:59:33.898Z,49.67
2022-12-13T02:02:01.470Z,49.49
2022-12-13T02:04:30.555Z,48.85
2022-12-13T02:06:57.763Z,49.33
2022-12-13T02:09:24.926Z,48.77
2022-12-13T02:11:52.367Z,49.82
2022-12-13T02:14:19.560Z,50.12
2022-12-13T02:16:57.676Z,49.77
2022-12-13T02:19:35.155Z,50.12
2022-12-13T02:22:20.807Z,49.72
2022-12-13T02:24:56.416Z,48.49
2022-12-13T02:27:35.346Z,48.59
2022-12-13T02:30:30.542Z,49.61
2022-12-13T02:33:00.904Z,49.21
2022-12-13T02:35:31.883Z,48.80
2022-12-13T02:38:06.016Z,48.13
2022-12-13T02:40:35.052Z,47.78
2022-12-13T02:43:04.156Z,47.56
2022-12-13T02:45:32.607Z,46.95
2022-12-13T02:48:00.935Z,46.59
2022-12-13T02:50:28.965Z,47.18
2022-12-13T02:52:56.183Z,48.61
2022-12-13T02:55:27.949Z,47.64
2022-12-13T02:57:55.650Z,47.36
2022-12-13T03:00:27.836Z,47.96
2022-12-13T03:02:59.804Z,47.81
2022-12-13T03:06:04.363Z,47.19
2022-12-13T03:08:36.748Z,47.05
2022-12-13T03:11:08.688Z,46.10
2022-12-13T03:13:39.166Z,45.87
2022-12-13T03:16:25.223Z,46.55
2022-12-13T03:18:53.399Z,46.20
2022-12-13T03:21:22.278Z,46.11
2022-12-13T03:23:49.447Z,46.73
2022-12-13T03:26:24.417Z,46.17
2022-12-13T03:28:51.689Z,46.47
2022-12-13T03:31:19.366Z,46.56
2022-12-13T03:33:46.636Z,46.83
2022-12-13T03:36:13.805Z,46.70
2022-12-13T03:38:41.257Z,46.46
2022-12-13T03:41:12.520Z,46.21
2022-12-13T03:43:40.503Z,46.08
2022-12-13T03:46:08.408Z,46.96
2022-12-13T03:48:35.783Z,47.13
2022-12-13T03:51:03.325Z,46.96
2022-12-13T03:53:33.541Z,46.59
2022-12-13T03:56:05.881Z,46.21
2022-12-13T03:58:34.821Z,46.67
2022-12-13T04:01:06.256Z,47.86
2022-12-13T04:03:34.038Z,47.34
2022-12-13T04:06:01.204Z,46.41
2022-12-13T04:08:28.393Z,45.85
2022-12-13T04:10:55.848Z,45.42
2022-12-13T04:13:35.175Z,45.17
2022-12-13T04:16:03.060Z,45.28
2022-12-13T04:18:30.487Z,46.12
2022-12-13T04:20:58.135Z,45.60
2022-12-13T04:23:25.547Z,45.44
2022-12-13T04:25:52.723Z,45.38
2022-12-13T04:28:22.230Z,45.74
2022-12-13T04:30:53.430Z,45.48
2022-12-13T04:33:21.733Z,44.82
2022-12-13T04:35:49.270Z,44.88
2022-12-13T04:38:16.719Z,45.36
2022-12-13T04:40:43.866Z,45.54
2022-12-13T04:43:11.058Z,45.12
2022-12-13T04:45:38.526Z,45.70
2022-12-13T04:48:05.928Z,45.68
2022-12-13T04:50:33.281Z,45.51
2022-12-13T04:53:00.913Z,45.52
2022-12-13T04:55:28.155Z,45.49
2022-12-13T04:57:55.292Z,45.23
2022-12-13T05:00:23.341Z,45.01
2022-12-13T05:02:50.754Z,44.68
2022-12-13T05:05:18.544Z,44.76
2022-12-13T05:07:46.669Z,45.08
2022-12-13T05:10:31.975Z,45.39
2022-12-13T05:13:01.731Z,45.61
2022-12-13T05:15:30.193Z,45.36
2022-12-13T05:18:09.798Z,45.33
2022-12-13T05:20:39.361Z,45.38
2022-12-13T05:23:06.576Z,45.63
2022-12-13T05:25:34.573Z,45.85
2022-12-13T05:28:26.820Z,45.99
2022-12-13T05:30:49.321Z,46.22
2022-12-13T05:33:16.749Z,46.33
2022-12-13T05:35:46.655Z,45.96
2022-12-13T05:38:13.989Z,45.11
2022-12-13T05:40:41.448Z,45.58
2022-12-13T05:43:22.090Z,45.14
2022-12-13T05:45:50.400Z,44.50
2022-12-13T05:48:24.548Z,44.20
2022-12-13T05:51:10.815Z,44.50
2022-12-13T05:53:42.054Z,44.79
2022-12-13T05:56:10.449Z,45.05
2022-12-13T05:58:38.313Z,46.15
2022-12-13T06:01:13.452Z,46.10
2022-12-13T06:03:41.689Z,46.24
2022-12-13T06:06:09.794Z,45.76
2022-12-13T06:08:37.126Z,45.60
2022-12-13T06:11:11.242Z,45.22
2022-12-13T06:13:43.972Z,45.02
2022-12-13T06:16:23.043Z,45.49
2022-12-13T06:19:03.296Z,46.48
2022-12-13T06:21:41.228Z,47.20
2022-12-13T06:24:13.720Z,46.35
2022-12-13T06:26:41.141Z,45.38
2022-12-13T06:29:08.297Z,44.55
2022-12-13T06:31:35.494Z,43.74
2022-12-13T06:34:14.910Z,44.58
2022-12-13T06:36:42.854Z,44.45
2022-12-13T06:39:11.012Z,43.89
2022-12-13T06:41:38.213Z,44.14
2022-12-13T06:44:05.351Z,43.56
2022-12-13T06:46:33.040Z,43.43
2022-12-13T06:49:00.346Z,43.34
2022-12-13T06:51:32.597Z,41.09
2022-12-13T06:54:02.320Z,37.71
2022-12-13T06:56:30.128Z,36.34
2022-12-13T06:59:01.388Z,37.19
2022-12-13T07:01:37.431Z,36.38
2022-12-13T07:04:29.007Z,34.99
2022-12-13T07:07:01.301Z,34.78
2022-12-13T07:09:32.467Z,34.78
2022-12-13T07:11:59.924Z,36.16
2022-12-13T07:14:27.093Z,36.07
2022-12-13T07:16:59.583Z,35.30
2022-12-13T07:19:42.201Z,35.04
2022-12-13T07:22:09.420Z,35.43
2022-12-13T07:24:36.866Z,35.93
2022-12-13T07:27:04.425Z,34.03
2022-12-13T07:29:31.609Z,33.93
2022-12-13T07:32:01.335Z,31.95
2022-12-13T07:34:29.771Z,30.20
2022-12-13T07:36:56.954Z,29.56
2022-12-13T07:39:26.229Z,29.95
2022-12-13T07:41:55.113Z,27.49
2022-12-13T07:44:22.360Z,25.75
2022-12-13T07:46:49.877Z,27.62
2022-12-13T07:49:17.513Z,29.23
2022-12-13T07:51:44.672Z,29.20
2022-12-13T07:54:12.278Z,29.00
2022-12-13T07:56:39.672Z,29.34
2022-12-13T07:59:06.812Z,30.31
2022-12-13T08:01:34.836Z,29.29
2022-12-13T08:04:03.026Z,28.92
2022-12-13T08:06:34.284Z,28.92
2022-12-13T08:09:01.403Z,28.51
2022-12-13T08:11:29.016Z,29.44
2022-12-13T08:13:56.186Z,29.54
2022-12-13T08:16:26.425Z,29.59
2022-12-13T08:19:02.424Z,29.75
2022-12-13T08:24:23.850Z,28.90
2022-12-13T08:26:51.055Z,28.19
2022-12-13T08:29:22.258Z,28.51
2022-12-13T08:31:51.167Z,27.96
2022-12-13T08:34:18.596Z,28.64
2022-12-13T08:36:45.718Z,28.09
2022-12-13T08:39:13.177Z,27.90
2022-12-13T08:41:40.573Z,27.73
2022-12-13T08:44:07.756Z,27.66
2022-12-13T08:46:35.212Z,27.92
2022-12-13T08:49:02.451Z,28.39
2022-12-13T08:51:35.579Z,29.47
2022-12-13T08:54:11.115Z,30.42
2022-12-13T08:56:38.900Z,30.21
2022-12-13T08:59:11.342Z,29.34
2022-12-13T09:01:38.563Z,28.90
2022-12-13T09:04:05.761Z,27.17
2022-12-13T09:06:33.210Z,24.49
2022-12-13T09:09:00.403Z,25.96
2022-12-13T09:11:33.232Z,25.51
2022-12-13T09:14:05.920Z,27.02
2022-12-13T09:16:36.466Z,26.18
2022-12-13T09:19:25.438Z,24.34
2022-12-13T09:22:02.550Z,22.93
2022-12-13T09:24:36.280Z,23.18
2022-12-13T09:27:09.277Z,24.75
2022-12-13T09:29:37.820Z,24.95
2022-12-13T09:32:05.505Z,25.76
2022-12-13T09:34:36.214Z,26.33
2022-12-13T09:37:03.382Z,27.13
2022-12-13T09:39:30.853Z,25.76
2022-12-13T09:42:01.372Z,24.73
2022-12-13T09:44:30.880Z,23.51
2022-12-13T09:47:01.519Z,23.34
2022-12-13T09:49:35.288Z,23.32
2022-12-13T09:52:10.656Z,23.33
2022-12-13T09:54:47.763Z,23.35
2022-12-13T09:57:30.644Z,23.90
2022-12-13T10:00:01.789Z,23.05
2022-12-13T10:02:40.167Z,23.60
2022-12-13T10:05:23.308Z,23.32
2022-12-13T10:07:51.512Z,23.48
2022-12-13T10:10:19.052Z,21.94
2022-12-13T10:12:47.720Z,21.68
2022-12-13T10:15:22.289Z,21.28
2022-12-13T10:17:54.848Z,19.32
2022-12-13T10:20:25.917Z,18.73
2022-12-13T10:23:30.229Z,18.09
2022-12-13T10:25:45.050Z,17.87
2022-12-13T10:28:12.588Z,18.24
2022-12-13T10:30:40.622Z,18.31
2022-12-13T10:33:12.855Z,17.26
2022-12-13T10:35:40.945Z,17.80
2022-12-13T10:38:08.030Z,19.03
2022-12-13T10:40:36.196Z,20.50
2022-12-13T10:43:07.645Z,20.40
2022-12-13T10:45:34.974Z,21.76
2022-12-13T10:48:04.392Z,21.34
2022-12-13T10:50:32.164Z,21.46
2022-12-13T10:53:00.147Z,20.38
2022-12-13T10:55:30.991Z,20.06
2022-12-13T10:57:59.811Z,18.66
2022-12-13T11:00:32.062Z,17.79
2022-12-13T11:02:59.639Z,18.42
2022-12-13T11:05:30.782Z,19.13
2022-12-13T11:08:11.838Z,18.48
2022-12-13T11:10:39.288Z,18.34
2022-12-13T11:13:06.685Z,17.86
2022-12-13T11:15:35.642Z,16.98
2022-12-13T11:18:04.790Z,17.30
2022-12-13T11:20:34.182Z,18.05
2022-12-13T11:23:03.033Z,18.84
2022-12-13T11:25:43.285Z,19.23
2022-12-13T11:28:26.749Z,19.45
2022-12-13T11:31:08.553Z,20.52
2022-12-13T11:33:48.426Z,20.98
2022-12-13T11:36:25.749Z,22.25
2022-12-13T11:38:59.097Z,22.42
2022-12-13T11:41:48.971Z,22.98
2022-12-13T11:44:34.520Z,23.71
2022-12-13T11:47:02.014Z,25.15
2022-12-13T11:49:39.256Z,25.50
2022-12-13T11:52:15.874Z,26.32
2022-12-13T11:54:46.040Z,27.11
2022-12-13T11:57:17.419Z,27.15
2022-12-13T11:59:45.565Z,29.68
2022-12-13T12:02:17.124Z,28.59
2022-12-13T12:04:48.210Z,28.40
2022-12-13T12:07:32.472Z,28.74
2022-12-13T12:10:03.661Z,28.45
2022-12-13T12:12:35.064Z,29.50
2022-12-13T12:15:05.258Z,28.65
2022-12-13T12:17:42.587Z,29.19
2022-12-13T12:20:13.496Z,29.15
2022-12-13T12:22:43.674Z,29.25
2022-12-13T12:25:32.288Z,29.40
2022-12-13T12:28:28.976Z,28.50
2022-12-13T12:30:56.736Z,30.33
2022-12-13T12:33:32.752Z,29.26
2022-12-13T12:36:18.763Z,29.87
2022-12-13T12:39:04.788Z,30.20
2022-12-13T12:41:45.272Z,29.95
2022-12-13T12:44:34.465Z,31.33
2022-12-13T12:49:57.849Z,29.81
2022-12-13T12:52:28.111Z,29.78
2022-12-13T12:55:03.598Z,30.77
2022-12-13T12:58:04.012Z,30.39
2022-12-13T13:00:35.296Z,29.58
2022-12-13T13:03:18.873Z,30.28
2022-12-13T13:06:02.123Z,29.46
2022-12-13T13:08:40.682Z,30.29
2022-12-13T13:11:24.414Z,30.82
2022-12-13T13:14:01.747Z,30.00
2022-12-13T13:16:38.369Z,29.81
2022-12-13T13:19:06.244Z,29.65
2022-12-13T13:21:34.587Z,29.31
2022-12-13T13:24:01.890Z,29.10
2022-12-13T13:26:35.869Z,29.47
2022-12-13T13:29:27.308Z,29.31
2022-12-13T13:32:28.853Z,29.58
2022-12-13T13:35:16.670Z,29.50
2022-12-13T13:37:48.689Z,29.69
2022-12-13T13:40:31.758Z,29.28
2022-12-13T13:43:05.367Z,30.33
2022-12-13T13:45:51.541Z,30.32
2022-12-13T13:48:29.007Z,30.29
2022-12-13T13:50:56.338Z,30.04
2022-12-13T13:53:24.049Z,29.87
2022-12-13T13:56:02.215Z,29.62
2022-12-13T13:58:29.806Z,30.01
2022-12-13T14:01:15.712Z,30.10
2022-12-13T14:03:50.585Z,30.05
2022-12-13T14:06:18.689Z,30.12
2022-12-13T14:08:50.460Z,30.66
2022-12-13T14:11:24.576Z,30.35
2022-12-13T14:14:04.189Z,30.40
2022-12-13T14:16:31.355Z,30.57
2022-12-13T14:19:01.559Z,30.89
2022-12-13T14:21:37.891Z,31.08
2022-12-13T14:24:12.477Z,31.20
2022-12-13T14:26:55.029Z,30.92
2022-12-13T14:29:29.568Z,31.56
2022-12-13T14:31:57.068Z,31.43
2022-12-13T14:34:25.741Z,31.47
2022-12-13T14:36:56.779Z,31.68
2022-12-13T14:39:26.091Z,32.11
2022-12-13T14:41:56.773Z,31.84
2022-12-13T14:44:26.784Z,31.63
2022-12-13T14:47:00.967Z,31.73
2022-12-13T14:49:29.324Z,32.12
2022-12-13T14:52:03.739Z,32.24
2022-12-13T14:54:41.736Z,32.73
2022-12-13T14:57:20.517Z,33.03
2022-12-13T14:59:50.559Z,33.11
2022-12-13T15:02:30.942Z,32.74
2022-12-13T15:05:03.915Z,32.60
2022-12-13T15:07:32.052Z,32.82
2022-12-13T15:10:03.719Z,32.93
2022-12-13T15:12:32.175Z,33.29
2022-12-13T15:15:00.127Z,33.38
2022-12-13T15:17:28.791Z,33.47
2022-12-13T15:20:00.714Z,33.94
2022-12-13T15:22:29.455Z,33.95
2022-12-13T15:25:00.137Z,33.97
2022-12-13T15:27:41.682Z,34.09
2022-12-13T15:30:15.659Z,35.12
2022-12-13T15:33:01.793Z,35.08
2022-12-13T15:35:28.980Z,34.79
2022-12-13T15:37:56.414Z,34.98
2022-12-13T15:40:25.175Z,35.30
2022-12-13T15:42:52.319Z,35.01
2022-12-13T15:45:29.230Z,35.09
2022-12-13T15:48:00.463Z,34.97
2022-12-13T15:50:35.419Z,35.34
2022-12-13T15:53:04.005Z,35.24
2022-12-13T15:55:38.363Z,35.11
2022-12-13T15:58:17.514Z,34.99
2022-12-13T16:00:48.706Z,35.07
2022-12-13T16:03:20.376Z,35.04
2022-12-13T16:05:59.021Z,34.83
2022-12-13T16:08:29.897Z,34.98
2022-12-13T16:11:00.304Z,35.22
2022-12-13T16:13:34.421Z,35.52
2022-12-13T16:16:09.628Z,36.81
2022-12-13T16:18:51.913Z,35.61
2022-12-13T16:21:19.305Z,36.15
2022-12-13T16:23:48.443Z,35.96
2022-12-13T16:26:21.317Z,36.00
2022-12-13T16:28:48.859Z,35.55
2022-12-13T16:31:17.476Z,35.62
2022-12-13T16:33:45.601Z,35.90
2022-12-13T16:36:13.137Z,35.92
2022-12-13T16:38:40.277Z,35.39
2022-12-13T16:41:08.387Z,35.45
2022-12-13T16:43:40.683Z,35.56
2022-12-13T16:47:11.875Z,35.55
2022-12-13T16:48:55.365Z,35.49
2022-12-13T16:51:22.737Z,34.98
2022-12-13T16:53:49.937Z,35.14
2022-12-13T16:56:21.794Z,35.26
2022-12-13T16:58:50.512Z,35.90
2022-12-13T17:01:19.835Z,36.26
2022-12-13T17:03:47.542Z,36.22
2022-12-13T17:06:15.043Z,35.66
2022-12-13T17:08:42.752Z,35.72
2022-12-13T17:11:14.596Z,35.15
2022-12-13T17:13:44.994Z,34.82
2022-12-13T17:16:12.376Z,35.09
2022-12-13T17:18:42.990Z,35.68
2022-12-13T17:21:11.128Z,35.36
2022-12-13T17:23:38.349Z,35.23
2022-12-13T17:26:09.907Z,35.13
2022-12-13T17:28:37.650Z,35.19
2022-12-13T17:31:06.399Z,35.33
2022-12-13T17:33:34.030Z,35.22
2022-12-13T17:36:03.308Z,35.62
2022-12-13T17:38:31.243Z,35.62
2022-12-13T17:41:00.730Z,35.27
2022-12-13T17:43:34.690Z,34.71
2022-12-13T17:46:03.776Z,34.46
2022-12-13T17:48:37.793Z,34.81
2022-12-13T17:51:08.422Z,35.44
2022-12-13T17:53:36.442Z,35.71
2022-12-13T17:56:04.678Z,35.51
2022-12-13T17:58:32.286Z,35.71
2022-12-13T18:00:59.993Z,35.68
2022-12-13T18:03:27.953Z,35.30
2022-12-13T18:05:56.874Z,35.81
2022-12-13T18:08:24.278Z,35.29
2022-12-13T18:11:08.640Z,34.62
2022-12-13T18:13:40.404Z,34.55
2022-12-13T18:16:08.750Z,34.85
2022-12-13T18:18:35.969Z,35.75
2022-12-13T18:21:14.239Z,36.19
2022-12-13T18:23:41.965Z,35.85
2022-12-13T18:26:10.219Z,35.29
2022-12-13T18:28:38.236Z,34.59
2022-12-13T18:31:07.672Z,35.10
2022-12-13T18:33:35.817Z,35.83
2022-12-13T18:36:03.330Z,35.91
2022-12-13T18:38:36.520Z,36.04
2022-12-13T18:41:15.420Z,35.75
2022-12-13T18:43:43.498Z,35.42
2022-12-13T18:46:11.210Z,35.13
2022-12-13T18:48:38.678Z,34.44
2022-12-13T18:51:07.581Z,34.47
2022-12-13T18:53:35.165Z,34.25
2022-12-13T18:56:03.417Z,34.70
2022-12-13T18:58:34.089Z,35.48
2022-12-13T19:01:01.938Z,35.07
2022-12-13T19:03:29.995Z,36.12
2022-12-13T19:05:58.378Z,36.13
2022-12-13T19:08:28.803Z,36.03
2022-12-13T19:10:56.957Z,35.23
2022-12-13T19:13:25.608Z,34.76
2022-12-13T19:15:53.824Z,35.44
2022-12-13T19:18:21.096Z,35.23
2022-12-13T19:20:52.237Z,35.40
2022-12-13T19:23:19.801Z,35.74
2022-12-13T19:25:48.752Z,35.91
2022-12-13T19:28:17.639Z,37.27
2022-12-13T19:30:46.029Z,37.46
2022-12-13T19:33:13.881Z,37.09
2022-12-13T19:35:43.365Z,36.69
2022-12-13T19:38:10.699Z,36.77
2022-12-13T19:40:39.016Z,36.39
2022-12-13T19:43:06.942Z,36.36
2022-12-13T19:45:34.404Z,36.57
2022-12-13T19:48:01.558Z,36.04
2022-12-13T19:50:29.517Z,36.53
2022-12-13T19:52:56.960Z,36.81
2022-12-13T19:55:24.115Z,37.26
2022-12-13T19:57:51.788Z,38.32
2022-12-13T20:00:19.026Z,38.54
2022-12-13T20:02:46.791Z,38.06
2022-12-13T20:05:34.018Z,37.72
2022-12-13T20:08:01.569Z,38.90
2022-12-13T20:10:29.024Z,38.75
2022-12-13T20:13:16.213Z,38.57
2022-12-13T20:15:47.300Z,37.95
2022-12-13T20:18:15.295Z,38.45
2022-12-13T20:21:14.160Z,38.10
2022-12-13T20:23:48.789Z,37.58
2022-12-13T20:26:18.908Z,38.00
2022-12-13T20:28:46.359Z,38.87
2022-12-13T20:31:18.520Z,37.56
2022-12-13T20:33:45.751Z,37.05
2022-12-13T20:36:24.193Z,37.01
2022-12-13T20:38:56.975Z,37.29
2022-12-13T20:41:25.486Z,37.63
2022-12-13T20:43:53.604Z,39.83
2022-12-13T20:46:21.436Z,39.24
2022-12-13T20:48:49.215Z,38.14
2022-12-13T20:51:21.260Z,38.71
2022-12-13T20:53:49.246Z,39.27
2022-12-13T20:56:20.854Z,39.28
2022-12-13T20:58:48.115Z,38.85
2022-12-13T21:01:37.895Z,39.03
2022-12-13T21:04:06.513Z,39.53
2022-12-13T21:06:36.034Z,40.01
2022-12-13T21:09:03.851Z,40.51
2022-12-13T21:11:37.315Z,41.45
2022-12-13T21:14:12.375Z,41.69
2022-12-13T21:16:45.267Z,41.67
2022-12-13T21:19:17.085Z,43.85
2022-12-13T21:21:44.272Z,41.54
2022-12-13T21:24:12.920Z,41.38
2022-12-13T21:26:40.512Z,41.86
2022-12-13T21:29:08.013Z,41.40
2022-12-13T21:31:35.497Z,41.44
2022-12-13T21:34:03.514Z,40.69
2022-12-13T21:36:31.976Z,40.57
2022-12-13T21:39:00.654Z,40.58
2022-12-13T21:41:28.312Z,40.50
2022-12-13T21:43:55.572Z,40.13
2022-12-13T21:46:25.938Z,41.04
2022-12-13T21:48:56.996Z,40.49
2022-12-13T21:51:24.497Z,41.11
2022-12-13T21:53:52.096Z,41.57
2022-12-13T21:56:39.337Z,40.74
2022-12-13T21:59:17.012Z,41.45
2022-12-13T22:02:03.072Z,41.51
2022-12-13T22:04:30.688Z,40.93
2022-12-13T22:06:57.926Z,40.40
2022-12-13T22:09:25.107Z,40.32
2022-12-13T22:11:52.672Z,40.39
2022-12-13T22:14:19.886Z,40.19
2022-12-13T22:16:47.254Z,40.44
2022-12-13T22:19:15.531Z,40.31
2022-12-13T22:21:42.708Z,39.82
2022-12-13T22:24:09.922Z,40.21
2022-12-13T22:26:37.701Z,39.94
2022-12-13T22:29:04.955Z,40.65
2022-12-13T22:31:32.448Z,40.73
2022-12-13T22:33:59.925Z,40.54
2022-12-13T22:36:27.122Z,40.56
2022-12-13T22:38:54.339Z,40.62
2022-12-13T22:41:21.826Z,40.63
2022-12-13T22:43:49.129Z,40.66
2022-12-13T22:46:17.424Z,40.33
2022-12-13T22:48:45.477Z,40.14
2022-12-13T22:51:13.748Z,40.07
2022-12-13T22:53:41.434Z,40.42
2022-12-13T22:56:27.051Z,40.52
2022-12-13T22:58:54.705Z,40.43
2022-12-13T23:01:23.194Z,40.40
2022-12-13T23:03:50.550Z,41.06
2022-12-13T23:06:19.145Z,40.81
2022-12-13T23:08:48.992Z,42.16
2022-12-13T23:11:34.932Z,41.97
2022-12-13T23:14:03.012Z,42.02
2022-12-13T23:16:30.945Z,42.09
2022-12-13T23:19:24.107Z,41.97
2022-12-13T23:21:48.584Z,42.74
2022-12-13T23:24:15.958Z,42.40
2022-12-13T23:26:43.093Z,42.54
2022-12-13T23:29:10.891Z,42.64
2022-12-13T23:31:39.221Z,42.41
2022-12-13T23:34:06.622Z,41.89
2022-12-13T23:36:34.178Z,41.45
2022-12-13T23:39:02.125Z,41.74
2022-12-13T23:41:33.690Z,41.68
2022-12-13T23:44:01.601Z,41.49
2022-12-13T23:46:30.192Z,42.04
2022-12-13T23:48:57.999Z,42.00
2022-12-13T23:51:25.881Z,42.91
2022-12-13T23:53:53.231Z,43.85
2022-12-13T23:56:20.841Z,43.30
2022-12-13T23:58:48.491Z,44.05
